createdAt,value
2022-11-23T00:01:35.903Z,2.15
2022-11-23T00:04:08.053Z,2.22
2022-11-23T00:06:35.769Z,2.26
2022-11-23T00:09:03.712Z,2.28
2022-11-23T00:11:30.985Z,2.26
2022-11-23T00:13:58.228Z,2.19
2022-11-23T00:16:29.126Z,2.15
2022-11-23T00:19:00.356Z,2.18
2022-11-23T00:21:31.250Z,2.22
2022-11-23T01:26:55.474Z,1.78
2022-11-23T01:29:24.444Z,1.80
2022-11-23T01:31:51.445Z,1.88
2022-11-23T01:34:18.870Z,1.92
2022-11-23T01:36:46.126Z,1.85
2022-11-23T01:39:13.880Z,1.81
2022-11-23T01:41:44.691Z,1.89
2022-11-23T01:44:30.707Z,1.92
2022-11-23T01:47:01.613Z,1.78
2022-11-23T01:49:38.855Z,1.76
2022-11-23T01:52:24.545Z,1.81
2022-11-23T01:54:56.832Z,1.72
2022-11-23T01:57:29.767Z,1.81
2022-11-23T01:59:58.050Z,1.81
2022-11-23T02:02:30.249Z,1.73
2022-11-23T02:05:00.568Z,1.80
2022-11-23T02:07:29.369Z,1.79
2022-11-23T02:09:56.881Z,1.73
2022-11-23T02:12:23.893Z,1.71
2022-11-23T02:14:51.147Z,1.69
2022-11-23T02:17:20.178Z,1.74
2022-11-23T02:20:14.126Z,1.80
2022-11-23T02:23:04.663Z,1.81
2022-11-23T02:25:45.624Z,1.80
2022-11-23T02:28:29.005Z,1.86
2022-11-23T02:30:56.363Z,1.86
2022-11-23T02:33:25.433Z,1.87
2022-11-23T02:36:00.932Z,1.88
2022-11-23T02:38:34.076Z,1.88
2022-11-23T02:41:02.094Z,1.86
2022-11-23T02:43:29.260Z,1.84
2022-11-23T02:46:02.312Z,1.85
2022-11-23T02:48:29.344Z,1.85
2022-11-23T02:50:56.505Z,1.88
2022-11-23T02:53:24.578Z,1.86
2022-11-23T02:55:53.728Z,1.85
2022-11-23T02:58:20.779Z,1.82
2022-11-23T03:00:48.486Z,1.78
2022-11-23T03:03:19.924Z,1.75
2022-11-23T03:05:47.125Z,1.77
2022-11-23T03:08:14.174Z,1.74
2022-11-23T03:10:41.540Z,1.76
2022-11-23T03:13:09.104Z,1.42
2022-11-23T03:15:38.649Z,1.29
2022-11-23T03:18:06.289Z,1.28
2022-11-23T03:20:34.087Z,1.46
2022-11-23T03:23:01.125Z,1.45
2022-11-23T03:25:28.545Z,1.52
2022-11-23T03:27:56.877Z,1.61
2022-11-23T03:30:24.214Z,1.56
2022-11-23T03:32:51.557Z,1.60
2022-11-23T03:35:20.069Z,1.68
2022-11-23T03:38:07.136Z,1.75
2022-11-23T03:40:34.910Z,1.77
2022-11-23T03:43:31.116Z,1.77
2022-11-23T03:45:58.457Z,1.76
2022-11-23T03:48:25.634Z,1.58
2022-11-23T03:50:53.487Z,1.61
2022-11-23T03:53:21.008Z,1.48
2022-11-23T03:55:48.417Z,1.40
2022-11-23T03:58:15.891Z,1.40
2022-11-23T04:00:43.647Z,1.39
2022-11-23T04:03:13.865Z,1.47
2022-11-23T04:06:09.379Z,1.37
2022-11-23T04:09:00.420Z,1.21
2022-11-23T04:11:53.831Z,1.14
2022-11-23T04:14:20.909Z,1.32
2022-11-23T04:16:48.736Z,1.45
2022-11-23T04:19:16.313Z,1.44
2022-11-23T04:21:43.592Z,1.42
2022-11-23T04:24:10.672Z,1.27
2022-11-23T04:26:40.492Z,1.33
2022-11-23T04:29:09.286Z,1.40
2022-11-23T04:31:40.019Z,1.51
2022-11-23T04:34:18.700Z,1.56
2022-11-23T04:36:46.208Z,1.59
2022-11-23T04:39:14.365Z,1.63
2022-11-23T04:42:00.144Z,1.45
2022-11-23T04:44:27.209Z,1.46
2022-11-23T04:47:01.265Z,1.43
2022-11-23T04:49:28.480Z,1.38
2022-11-23T04:51:55.840Z,1.25
2022-11-23T04:54:30.075Z,1.27
2022-11-23T04:57:01.004Z,1.19
2022-11-23T04:59:28.987Z,1.26
2022-11-23T05:01:57.199Z,1.36
2022-11-23T05:04:48.683Z,1.24
2022-11-23T05:07:17.907Z,1.26
2022-11-23T05:09:51.083Z,1.21
2022-11-23T05:12:21.261Z,1.21
2022-11-23T05:14:48.333Z,1.24
2022-11-23T05:17:21.265Z,1.35
2022-11-23T05:19:51.089Z,1.33
2022-11-23T05:22:18.733Z,1.31
2022-11-23T05:24:45.825Z,1.03
2022-11-23T05:27:17.360Z,0.91
2022-11-23T05:29:46.180Z,0.55
2022-11-23T05:32:14.467Z,0.61
2022-11-23T05:34:42.662Z,0.69
2022-11-23T05:37:12.207Z,0.62
2022-11-23T05:39:48.949Z,0.92
2022-11-23T05:42:17.101Z,0.86
2022-11-23T05:44:44.064Z,0.66
2022-11-23T05:47:19.559Z,0.86
2022-11-23T05:49:47.915Z,0.87
2022-11-23T05:52:18.420Z,1.00
2022-11-23T05:54:48.644Z,1.09
2022-11-23T05:57:15.869Z,1.01
2022-11-23T05:59:45.099Z,1.12
2022-11-23T06:02:20.268Z,1.02
2022-11-23T06:04:55.147Z,1.19
2022-11-23T06:07:33.622Z,0.90
2022-11-23T06:10:07.465Z,0.72
2022-11-23T06:12:38.430Z,0.71
2022-11-23T06:15:09.712Z,0.91
2022-11-23T06:17:37.279Z,1.03
2022-11-23T06:20:09.708Z,1.05
2022-11-23T06:22:42.057Z,0.91
2022-11-23T06:25:09.873Z,0.91
2022-11-23T06:27:42.162Z,0.93
2022-11-23T06:30:16.656Z,1.06
2022-11-23T06:32:44.354Z,1.13
2022-11-23T06:35:11.330Z,1.24
2022-11-23T06:37:41.384Z,1.26
2022-11-23T06:40:10.590Z,1.11
2022-11-23T06:42:39.736Z,0.95
2022-11-23T06:45:13.839Z,0.99
2022-11-23T06:47:41.134Z,0.88
2022-11-23T06:50:09.380Z,0.93
2022-11-23T06:52:38.083Z,0.98
2022-11-23T06:55:05.617Z,0.84
2022-11-23T06:57:32.947Z,1.00
2022-11-23T07:00:00.544Z,0.93
2022-11-23T07:02:34.005Z,0.74
2022-11-23T07:05:01.361Z,0.80
2022-11-23T07:07:32.017Z,0.74
2022-11-23T07:10:10.033Z,0.71
2022-11-23T07:12:45.868Z,0.57
2022-11-23T07:15:14.932Z,0.54
2022-11-23T07:17:44.541Z,0.50
2022-11-23T07:20:13.283Z,0.54
2022-11-23T07:22:41.411Z,0.48
2022-11-23T07:25:09.105Z,0.35
2022-11-23T07:27:36.329Z,0.38
2022-11-23T07:30:05.772Z,0.34
2022-11-23T07:32:33.187Z,0.35
2022-11-23T07:35:00.257Z,0.44
2022-11-23T07:37:29.215Z,0.56
2022-11-23T07:39:57.827Z,0.65
2022-11-23T07:42:40.031Z,0.78
2022-11-23T07:45:12.931Z,0.72
2022-11-23T07:47:45.772Z,0.59
2022-11-23T07:50:14.114Z,0.40
2022-11-23T07:52:41.722Z,0.53
2022-11-23T07:55:09.411Z,0.73
2022-11-23T07:57:36.656Z,0.72
2022-11-23T08:00:05.043Z,0.72
2022-11-23T08:03:11.520Z,0.54
2022-11-23T08:05:33.286Z,0.33
2022-11-23T08:08:02.508Z,0.36
2022-11-23T08:10:31.689Z,0.41
2022-11-23T08:13:05.848Z,0.70
2022-11-23T08:15:33.284Z,0.84
2022-11-23T08:18:03.701Z,0.92
2022-11-23T08:20:33.457Z,0.94
2022-11-23T08:23:00.809Z,0.60
2022-11-23T08:25:29.657Z,0.56
2022-11-23T08:28:03.576Z,0.48
2022-11-23T08:30:33.203Z,0.41
2022-11-23T08:33:07.313Z,0.47
2022-11-23T08:35:37.676Z,0.50
2022-11-23T08:38:07.659Z,0.56
2022-11-23T08:40:36.120Z,0.59
2022-11-23T08:43:04.572Z,0.62
2022-11-23T08:45:32.021Z,0.45
2022-11-23T08:48:04.030Z,0.43
2022-11-23T08:50:34.320Z,0.46
2022-11-23T08:53:01.709Z,0.44
2022-11-23T08:55:29.252Z,0.60
2022-11-23T08:57:59.050Z,0.61
2022-11-23T09:00:28.048Z,0.62
2022-11-23T09:02:59.002Z,0.58
2022-11-23T09:05:30.236Z,0.60
2022-11-23T09:08:01.145Z,0.69
2022-11-23T09:10:29.084Z,0.75
2022-11-23T09:12:56.563Z,0.79
2022-11-23T09:15:24.371Z,0.86
2022-11-23T09:17:51.937Z,0.77
2022-11-23T09:20:19.232Z,0.56
2022-11-23T09:22:56.207Z,0.66
2022-11-23T09:25:23.853Z,0.56
2022-11-23T09:28:04.359Z,0.87
2022-11-23T09:30:31.461Z,0.94
2022-11-23T09:32:58.870Z,0.82
2022-11-23T09:35:28.837Z,0.58
2022-11-23T09:38:00.232Z,0.68
2022-11-23T09:40:37.422Z,0.50
2022-11-23T09:43:44.149Z,0.69
2022-11-23T09:46:46.637Z,0.77
2022-11-23T09:49:21.097Z,0.97
2022-11-23T09:51:55.461Z,1.02
2022-11-23T09:54:36.828Z,0.81
2022-11-23T09:57:04.871Z,0.75
2022-11-23T09:59:50.508Z,0.97
2022-11-23T10:02:28.984Z,0.92
2022-11-23T10:05:00.364Z,0.85
2022-11-23T10:07:52.452Z,0.89
2022-11-23T10:10:43.765Z,1.01
2022-11-23T10:13:43.094Z,0.83
2022-11-23T10:16:28.437Z,0.65
2022-11-23T10:19:10.397Z,0.63
2022-11-23T10:21:52.700Z,0.74
2022-11-23T10:24:28.532Z,0.92
2022-11-23T10:26:55.867Z,0.69
2022-11-23T10:29:32.483Z,0.62
2022-11-23T10:32:01.036Z,0.60
2022-11-23T10:35:15.746Z,0.62
2022-11-23T10:37:43.854Z,0.73
2022-11-23T10:40:28.892Z,0.66
2022-11-23T10:43:10.508Z,0.85
2022-11-23T10:45:37.611Z,1.04
2022-11-23T10:48:05.311Z,1.07
2022-11-23T10:50:40.723Z,0.81
2022-11-23T10:53:25.967Z,0.81
2022-11-23T10:55:58.095Z,0.83
2022-11-23T10:58:42.158Z,0.88
2022-11-23T11:01:23.107Z,0.80
2022-11-23T11:03:56.721Z,1.01
2022-11-23T11:06:32.380Z,0.95
2022-11-23T11:09:09.531Z,1.00
2022-11-23T11:11:46.940Z,0.90
2022-11-23T11:14:23.389Z,0.94
2022-11-23T11:16:56.628Z,0.85
2022-11-23T11:19:31.297Z,0.96
2022-11-23T11:22:01.575Z,0.89
2022-11-23T11:24:39.820Z,0.88
2022-11-23T11:27:20.471Z,0.96
2022-11-23T11:29:51.471Z,1.14
2022-11-23T11:32:46.211Z,0.95
2022-11-23T11:35:25.943Z,0.97
2022-11-23T11:38:00.705Z,0.81
2022-11-23T11:40:46.540Z,0.79
2022-11-23T11:43:37.798Z,0.91
2022-11-23T11:46:40.307Z,1.11
2022-11-23T11:49:26.697Z,1.08
2022-11-23T11:52:05.218Z,1.14
2022-11-23T11:55:15.211Z,0.92
2022-11-23T11:57:55.816Z,1.01
2022-11-23T12:00:23.156Z,1.05
2022-11-23T12:03:12.351Z,1.26
2022-11-23T12:05:51.002Z,1.08
2022-11-23T12:08:45.732Z,0.90
2022-11-23T12:11:13.693Z,0.94
2022-11-23T12:13:46.764Z,1.02
2022-11-23T12:17:32.339Z,0.94
2022-11-23T12:20:28.839Z,0.96
2022-11-23T12:23:48.325Z,1.00
2022-11-23T12:26:48.817Z,1.11
2022-11-23T12:29:39.172Z,1.19
2022-11-23T12:32:47.641Z,1.18
2022-11-23T12:35:48.191Z,1.11
2022-11-23T12:38:37.642Z,1.14
2022-11-23T12:41:22.806Z,1.06
2022-11-23T12:44:32.794Z,1.03
2022-11-23T12:48:21.978Z,1.31
2022-11-23T12:51:14.865Z,1.25
2022-11-23T12:54:17.691Z,1.30
2022-11-23T12:57:08.106Z,1.16
2022-11-23T12:59:57.781Z,1.13
2022-11-23T13:03:00.708Z,1.28
2022-11-23T13:05:55.958Z,1.19
2022-11-23T13:08:59.211Z,1.18
2022-11-23T13:12:12.447Z,1.37
2022-11-23T13:14:53.688Z,1.44
2022-11-23T13:17:54.650Z,1.15
2022-11-23T13:21:12.056Z,1.29
2022-11-23T13:23:43.107Z,1.50
2022-11-23T13:26:17.148Z,1.54
2022-11-23T13:28:50.369Z,1.39
2022-11-23T13:31:29.090Z,1.36
2022-11-23T13:34:21.182Z,1.29
2022-11-23T13:37:17.331Z,1.41
2022-11-23T13:39:45.005Z,1.45
2022-11-23T13:42:12.869Z,1.56
2022-11-23T13:44:40.045Z,1.66
2022-11-23T13:47:10.259Z,1.55
2022-11-23T13:49:44.584Z,1.48
2022-11-23T13:52:21.580Z,1.49
2022-11-23T13:55:09.380Z,1.49
2022-11-23T13:57:40.884Z,1.37
2022-11-23T14:00:56.870Z,1.51
2022-11-23T14:03:45.353Z,1.51
2022-11-23T14:06:43.442Z,1.62
2022-11-23T14:09:36.939Z,1.46
2022-11-23T14:12:17.066Z,1.54
2022-11-23T14:14:56.329Z,1.47
2022-11-23T14:18:15.674Z,1.56
2022-11-23T14:20:56.297Z,1.55
2022-11-23T14:24:21.872Z,1.61
2022-11-23T14:27:46.107Z,1.76
2022-11-23T14:30:59.909Z,1.59
2022-11-23T14:34:04.452Z,1.46
2022-11-23T14:37:10.586Z,1.54
2022-11-23T14:40:12.961Z,1.73
2022-11-23T14:42:50.541Z,1.79
2022-11-23T14:45:22.722Z,1.82
2022-11-23T14:47:50.086Z,1.83
2022-11-23T14:50:24.176Z,1.66
2022-11-23T14:52:58.384Z,1.60
2022-11-23T14:55:30.401Z,1.72
2022-11-23T14:58:04.697Z,1.80
2022-11-23T15:00:38.628Z,1.81
2022-11-23T15:03:49.249Z,1.71
2022-11-23T15:06:14.514Z,1.80
2022-11-23T15:08:59.769Z,1.68
2022-11-23T15:11:32.738Z,1.63
2022-11-23T15:14:02.322Z,1.71
2022-11-23T15:16:30.207Z,1.60
2022-11-23T15:18:57.341Z,1.76
2022-11-23T15:21:28.375Z,1.83
2022-11-23T15:23:58.238Z,1.68
2022-11-23T15:26:47.983Z,1.76
2022-11-23T15:29:57.089Z,1.79
2022-11-23T15:32:33.415Z,1.78
2022-11-23T15:35:07.965Z,1.49
2022-11-23T15:37:46.716Z,1.57
2022-11-23T15:40:19.834Z,1.67
2022-11-23T15:42:51.139Z,1.62
2022-11-23T15:45:46.533Z,1.56
2022-11-23T15:48:23.136Z,1.55
2022-11-23T15:50:57.419Z,1.56
2022-11-23T15:53:49.549Z,1.64
2022-11-23T15:56:30.645Z,1.47
2022-11-23T15:59:28.804Z,1.57
2022-11-23T16:01:56.642Z,1.69
2022-11-23T16:04:42.225Z,1.62
2022-11-23T16:07:24.940Z,1.53
2022-11-23T16:10:52.909Z,1.53
2022-11-23T16:13:39.696Z,1.58
2022-11-23T16:16:17.691Z,1.67
2022-11-23T16:18:48.678Z,1.68
2022-11-23T16:21:20.445Z,1.63
2022-11-23T16:23:56.469Z,1.67
2022-11-23T16:26:34.193Z,1.64
2022-11-23T16:29:03.552Z,1.64
2022-11-23T16:31:40.639Z,1.67
2022-11-23T16:34:17.441Z,1.73
2022-11-23T16:36:45.544Z,1.79
2022-11-23T16:39:12.993Z,1.74
2022-11-23T16:41:40.891Z,1.79
2022-11-23T16:44:08.117Z,1.82
2022-11-23T16:46:40.430Z,1.76
2022-11-23T16:49:21.855Z,1.53
2022-11-23T16:51:57.240Z,1.49
2022-11-23T16:54:34.060Z,1.56
2022-11-23T16:57:01.534Z,1.59
2022-11-23T16:59:28.621Z,1.41
2022-11-23T17:01:57.710Z,1.52
2022-11-23T17:04:25.777Z,1.49
2022-11-23T17:06:53.207Z,1.52
2022-11-23T17:09:20.154Z,1.50
2022-11-23T17:11:50.649Z,1.38
2022-11-23T17:14:29.977Z,1.40
2022-11-23T17:16:57.543Z,1.42
2022-11-23T17:19:26.033Z,1.46
2022-11-23T17:21:53.280Z,1.47
2022-11-23T17:24:20.213Z,1.57
2022-11-23T17:26:53.034Z,1.58
2022-11-23T17:29:21.083Z,1.64
2022-11-23T17:31:50.745Z,1.55
2022-11-23T17:34:18.174Z,1.63
2022-11-23T17:36:49.308Z,1.69
2022-11-23T17:39:23.006Z,1.51
2022-11-23T17:41:50.877Z,1.49
2022-11-23T17:44:18.114Z,1.61
2022-11-23T17:46:47.486Z,1.66
2022-11-23T17:49:19.975Z,1.72
2022-11-23T17:51:47.345Z,1.62
2022-11-23T17:54:14.296Z,1.58
2022-11-23T17:56:41.872Z,1.64
2022-11-23T17:59:09.002Z,1.75
2022-11-23T18:01:36.408Z,1.75
2022-11-23T18:04:05.264Z,1.77
2022-11-23T18:06:33.109Z,1.66
2022-11-23T18:09:00.188Z,1.60
2022-11-23T18:11:29.516Z,1.64
2022-11-23T18:13:56.584Z,1.38
2022-11-23T18:16:24.615Z,1.44
2022-11-23T18:18:51.709Z,1.51
2022-11-23T18:21:19.174Z,1.66
2022-11-23T18:23:46.316Z,1.64
2022-11-23T18:26:27.090Z,1.64
2022-11-23T18:28:54.469Z,1.56
2022-11-23T18:31:22.151Z,1.46
2022-11-23T18:33:49.532Z,1.36
2022-11-23T18:36:16.876Z,1.45
2022-11-23T18:38:47.168Z,1.38
2022-11-23T18:41:16.702Z,1.42
2022-11-23T18:43:44.992Z,1.52
2022-11-23T18:46:19.260Z,1.60
2022-11-23T18:48:49.148Z,1.51
2022-11-23T18:51:18.220Z,1.56
2022-11-23T18:53:47.487Z,1.62
2022-11-23T18:56:14.864Z,1.38
2022-11-23T18:58:44.469Z,1.47
2022-11-23T19:01:21.303Z,1.47
2022-11-23T19:03:52.844Z,1.60
2022-11-23T19:06:23.519Z,1.53
2022-11-23T19:08:53.973Z,1.51
2022-11-23T19:11:27.319Z,1.56
2022-11-23T19:13:57.932Z,1.57
2022-11-23T19:16:30.088Z,1.59
2022-11-23T19:19:00.191Z,1.58
2022-11-23T19:21:31.797Z,1.36
2022-11-23T19:24:00.597Z,1.49
2022-11-23T19:26:30.382Z,1.69
2022-11-23T19:28:58.935Z,1.76
2022-11-23T19:31:29.911Z,1.69
2022-11-23T19:34:05.793Z,1.58
2022-11-23T19:36:36.440Z,1.63
2022-11-23T19:39:05.673Z,1.42
2022-11-23T19:41:33.362Z,1.44
2022-11-23T19:44:01.675Z,1.62
2022-11-23T19:46:31.349Z,1.44
2022-11-23T19:48:59.109Z,1.40
2022-11-23T19:51:28.374Z,1.44
2022-11-23T19:53:57.532Z,1.42
2022-11-23T19:56:28.767Z,1.40
2022-11-23T19:59:01.411Z,1.42
2022-11-23T20:01:32.458Z,1.52
2022-11-23T20:04:08.743Z,1.62
2022-11-23T20:06:42.519Z,1.63
2022-11-23T20:09:12.307Z,1.73
2022-11-23T20:11:40.848Z,1.82
2022-11-23T20:14:10.692Z,1.57
2022-11-23T20:16:38.832Z,1.63
2022-11-23T20:19:08.788Z,1.66
2022-11-23T20:21:38.235Z,1.50
2022-11-23T20:24:14.665Z,1.55
2022-11-23T20:26:42.929Z,1.62
2022-11-23T20:29:11.319Z,1.47
2022-11-23T20:31:39.175Z,1.45
2022-11-23T20:34:07.731Z,1.58
2022-11-23T20:36:38.417Z,1.54
2022-11-23T20:39:09.869Z,1.38
2022-11-23T20:41:38.726Z,1.41
2022-11-23T20:44:12.065Z,1.28
2022-11-23T20:49:27.551Z,1.25
2022-11-23T20:51:54.891Z,1.40
2022-11-23T20:54:22.111Z,1.51
2022-11-23T20:56:49.064Z,1.50
2022-11-23T20:59:17.169Z,1.45
2022-11-23T21:01:44.227Z,1.43
2022-11-23T21:04:11.701Z,1.52
2022-11-23T21:06:40.063Z,1.29
2022-11-23T21:09:09.695Z,1.53
2022-11-23T21:11:56.146Z,1.56
2022-11-23T21:14:30.347Z,1.37
2022-11-23T21:17:00.185Z,1.36
2022-11-23T21:19:36.449Z,1.44
2022-11-23T21:22:14.597Z,1.43
2022-11-23T21:24:42.262Z,1.57
2022-11-23T21:27:13.387Z,1.56
2022-11-23T21:29:41.033Z,1.54
2022-11-23T21:32:08.157Z,1.52
2022-11-23T21:34:35.857Z,1.63
2022-11-23T21:37:03.090Z,1.67
2022-11-23T21:39:31.025Z,1.73
2022-11-23T21:41:58.228Z,1.81
2022-11-23T21:44:25.524Z,1.90
2022-11-23T21:46:52.686Z,1.92
2022-11-23T21:49:20.145Z,1.95
2022-11-23T21:51:48.307Z,1.96
2022-11-23T21:54:16.253Z,1.94
2022-11-23T21:56:45.593Z,1.94
2022-11-23T21:59:13.898Z,1.91
2022-11-23T22:01:41.891Z,1.95
2022-11-23T22:04:13.244Z,1.86
2022-11-23T22:06:42.140Z,1.89
2022-11-23T22:09:11.395Z,1.93
2022-11-23T22:11:41.614Z,1.90
2022-11-23T22:14:13.160Z,1.82
2022-11-23T22:16:46.312Z,1.78
2022-11-23T22:19:16.676Z,1.88
2022-11-23T22:21:46.010Z,1.88
2022-11-23T22:24:17.052Z,1.80
2022-11-23T22:26:45.918Z,1.82
2022-11-23T22:29:13.764Z,1.88
2022-11-23T22:31:41.056Z,1.90
2022-11-23T22:34:12.210Z,1.80
2022-11-23T22:36:39.542Z,1.83
2022-11-23T22:39:08.073Z,1.90
2022-11-23T22:41:37.338Z,1.93
2022-11-23T22:44:08.038Z,1.97
2022-11-23T22:46:36.637Z,1.90
2022-11-23T22:49:04.501Z,1.87
2022-11-23T22:51:32.166Z,1.73
2022-11-23T22:54:01.303Z,1.74
2022-11-23T22:56:30.607Z,1.75
2022-11-23T22:58:59.027Z,1.71
2022-11-23T23:01:30.785Z,1.75
2022-11-23T23:04:01.686Z,1.81
2022-11-23T23:06:34.684Z,1.68
2022-11-23T23:09:04.687Z,1.75
2022-11-23T23:11:34.083Z,1.67
2022-11-23T23:14:03.500Z,1.56
2022-11-23T23:16:31.157Z,1.59
2022-11-23T23:18:59.751Z,1.57
2022-11-23T23:21:28.697Z,1.55
2022-11-23T23:24:00.264Z,1.43
2022-11-23T23:26:31.247Z,1.44
2022-11-23T23:29:00.788Z,1.57
2022-11-23T23:31:30.042Z,1.57
2022-11-23T23:33:59.678Z,1.69
2022-11-23T23:36:26.828Z,1.74
2022-11-23T23:38:54.305Z,1.70
2022-11-23T23:41:21.607Z,1.74
2022-11-23T23:43:49.085Z,1.71
2022-11-23T23:46:16.697Z,1.72
2022-11-23T23:48:44.640Z,1.76
2022-11-23T23:51:24.003Z,1.67
2022-11-23T23:53:52.093Z,1.62
2022-11-23T23:56:26.356Z,1.60
2022-11-23T23:58:56.838Z,1.69
